createdAt,value
2018-06-23T00:01:26.736Z,80.82
2018-06-23T00:04:30.396Z,81.21
2018-06-23T00:07:34.059Z,81.12
2018-06-23T00:10:37.909Z,81.49
2018-06-23T00:13:41.525Z,81.44
2018-06-23T00:16:45.697Z,81.31
2018-06-23T00:19:49.404Z,80.89
2018-06-23T00:22:53.144Z,80.91
2018-06-23T00:26:01.875Z,80.97
2018-06-23T00:29:05.785Z,80.98
2018-06-23T00:32:09.455Z,80.76
2018-06-23T00:35:13.060Z,80.89
2018-06-23T00:38:16.756Z,81.18
2018-06-23T00:41:20.353Z,81.49
2018-06-23T00:44:23.891Z,81.10
2018-06-23T00:47:27.480Z,81.61
2018-06-23T00:50:31.141Z,81.76
2018-06-23T00:53:34.972Z,81.42
2018-06-23T00:56:38.537Z,81.19
2018-06-23T00:59:43.956Z,81.18
2018-06-23T01:02:47.608Z,81.23
2018-06-23T01:05:51.255Z,80.86
2018-06-23T01:08:54.950Z,80.34
2018-06-23T01:11:58.571Z,80.56
2018-06-23T01:15:02.291Z,80.55
2018-06-23T01:18:06.094Z,80.25
2018-06-23T01:21:09.693Z,80.40
2018-06-23T01:24:13.236Z,80.32
2018-06-23T01:27:16.981Z,80.10
2018-06-23T01:30:20.598Z,80.22
2018-06-23T01:33:24.285Z,80.06
2018-06-23T01:36:27.848Z,80.39
2018-06-23T01:39:31.454Z,80.30
2018-06-23T01:42:35.091Z,80.88
2018-06-23T01:45:38.760Z,80.89
2018-06-23T01:48:42.462Z,80.89
2018-06-23T01:51:46.180Z,80.98
2018-06-23T01:54:49.746Z,81.22
2018-06-23T01:57:53.425Z,80.96
2018-06-23T02:00:57.152Z,81.43
2018-06-23T02:04:00.943Z,81.48
2018-06-23T02:07:04.783Z,81.55
2018-06-23T02:10:08.411Z,82.36
2018-06-23T02:13:12.098Z,82.83
2018-06-23T02:16:20.950Z,82.71
2018-06-23T02:20:31.563Z,83.55
2018-06-23T02:23:40.382Z,83.79
2018-06-23T02:26:49.127Z,83.99
2018-06-23T02:29:58.039Z,84.27
2018-06-23T02:34:07.639Z,84.40
2018-06-23T02:37:11.349Z,84.39
2018-06-23T02:40:14.982Z,84.67
2018-06-23T02:43:18.567Z,84.31
2018-06-23T02:46:22.288Z,84.34
2018-06-23T02:49:25.900Z,84.37
2018-06-23T02:52:30.806Z,84.74
2018-06-23T02:55:34.383Z,84.53
2018-06-23T02:58:38.093Z,84.56
2018-06-23T03:01:41.785Z,84.46
2018-06-23T03:04:45.503Z,84.87
2018-06-23T03:07:49.167Z,85.08
2018-06-23T03:10:52.899Z,85.11
2018-06-23T03:13:56.470Z,85.08
2018-06-23T03:17:00.070Z,85.25
2018-06-23T03:20:03.837Z,85.04
2018-06-23T03:23:07.434Z,85.33
2018-06-23T03:26:11.228Z,85.08
2018-06-23T03:29:14.929Z,85.40
2018-06-23T03:32:18.569Z,86.08
2018-06-23T03:35:22.192Z,87.75
2018-06-23T03:38:26.047Z,88.55
2018-06-23T03:41:29.693Z,89.46
2018-06-23T03:44:33.431Z,91.03
2018-06-23T03:47:37.188Z,92.26
2018-06-23T03:50:40.979Z,92.90
2018-06-23T03:53:44.583Z,92.74
2018-06-23T03:56:48.365Z,92.76
2018-06-23T03:59:51.985Z,92.77
2018-06-23T04:02:55.823Z,93.50
2018-06-23T04:05:59.489Z,93.11
2018-06-23T04:09:03.157Z,92.71
2018-06-23T04:12:06.913Z,92.70
2018-06-23T04:15:10.661Z,92.80
2018-06-23T04:18:14.276Z,93.16
2018-06-23T04:21:17.944Z,93.54
2018-06-23T04:24:21.566Z,93.55
2018-06-23T04:27:25.222Z,93.64
2018-06-23T04:30:28.943Z,93.41
2018-06-23T04:33:32.524Z,93.16
2018-06-23T04:36:36.299Z,92.99
2018-06-23T04:39:39.989Z,92.74
2018-06-23T04:42:43.759Z,93.00
2018-06-23T04:45:47.360Z,93.35
2018-06-23T04:48:51.147Z,93.47
2018-06-23T04:51:54.794Z,93.70
2018-06-23T04:54:58.468Z,93.80
2018-06-23T04:58:02.109Z,93.66
2018-06-23T05:01:05.810Z,93.77
2018-06-23T05:04:09.493Z,93.17
2018-06-23T05:07:13.089Z,93.08
2018-06-23T05:10:16.743Z,93.04
2018-06-23T05:13:20.348Z,92.71
2018-06-23T05:16:23.946Z,92.74
2018-06-23T05:19:27.573Z,92.55
2018-06-23T05:22:31.225Z,92.43
2018-06-23T05:25:34.914Z,93.22
2018-06-23T05:28:38.658Z,93.33
2018-06-23T05:31:42.428Z,94.00
2018-06-23T05:34:46.085Z,94.17
2018-06-23T05:37:50.702Z,94.49
2018-06-23T05:40:54.322Z,95.10
2018-06-23T05:43:58.064Z,95.41
2018-06-23T05:47:01.803Z,95.03
2018-06-23T05:50:05.515Z,94.80
2018-06-23T05:53:09.348Z,95.09
2018-06-23T05:56:13.081Z,95.08
2018-06-23T05:59:16.733Z,94.94
2018-06-23T06:02:20.310Z,94.98
2018-06-23T06:05:24.068Z,95.36
2018-06-23T06:08:27.829Z,95.15
2018-06-23T06:11:33.359Z,95.29
2018-06-23T06:14:43.683Z,95.77
2018-06-23T06:17:47.280Z,95.09
2018-06-23T06:20:50.996Z,95.13
2018-06-23T06:23:54.754Z,95.05
2018-06-23T06:26:58.399Z,94.51
2018-06-23T06:30:02.047Z,94.70
2018-06-23T06:33:05.765Z,94.19
2018-06-23T06:36:09.305Z,93.62
2018-06-23T06:39:12.845Z,93.72
2018-06-23T06:42:16.801Z,93.18
2018-06-23T06:45:20.434Z,92.76
2018-06-23T06:48:24.110Z,93.06
2018-06-23T06:51:27.775Z,94.36
2018-06-23T06:54:31.489Z,94.74
2018-06-23T06:57:35.229Z,94.25
2018-06-23T07:00:38.875Z,94.09
2018-06-23T07:03:42.545Z,92.96
2018-06-23T07:06:46.197Z,93.21
2018-06-23T07:09:49.886Z,93.47
2018-06-23T07:12:53.533Z,93.52
2018-06-23T07:15:57.287Z,93.24
2018-06-23T07:19:01.115Z,92.24
2018-06-23T07:22:04.791Z,91.64
2018-06-23T07:25:08.582Z,90.84
2018-06-23T07:28:12.228Z,89.94
2018-06-23T07:31:16.001Z,89.75
2018-06-23T07:34:19.892Z,88.55
2018-06-23T07:37:23.596Z,85.89
2018-06-23T07:40:27.243Z,83.15
2018-06-23T07:43:30.879Z,83.83
2018-06-23T07:46:35.186Z,82.95
2018-06-23T07:49:38.941Z,83.23
2018-06-23T07:52:42.530Z,82.83
2018-06-23T07:55:46.267Z,85.06
2018-06-23T07:58:50.010Z,85.31
2018-06-23T08:01:54.185Z,84.50
2018-06-23T08:04:57.973Z,83.96
2018-06-23T08:08:01.863Z,79.97
2018-06-23T08:11:05.506Z,77.58
2018-06-23T08:14:09.170Z,73.16
2018-06-23T08:17:13.143Z,71.48
2018-06-23T08:20:16.875Z,71.36
2018-06-23T08:23:20.756Z,73.74
2018-06-23T08:26:24.694Z,71.82
2018-06-23T08:29:28.250Z,70.08
2018-06-23T08:32:31.922Z,72.40
2018-06-23T08:35:35.596Z,72.26
2018-06-23T08:38:39.213Z,71.38
2018-06-23T08:41:42.871Z,69.23
2018-06-23T08:44:46.690Z,65.58
2018-06-23T08:47:50.362Z,65.03
2018-06-23T08:50:54.040Z,60.38
2018-06-23T08:53:57.733Z,61.71
2018-06-23T08:57:01.459Z,59.06
2018-06-23T09:00:05.681Z,59.94
2018-06-23T09:03:09.368Z,62.23
2018-06-23T09:06:13.056Z,62.84
2018-06-23T09:09:16.672Z,62.57
2018-06-23T09:12:20.523Z,61.74
2018-06-23T09:15:24.236Z,62.52
2018-06-23T09:18:28.001Z,61.46
2018-06-23T09:21:31.627Z,60.68
2018-06-23T09:24:35.733Z,61.32
2018-06-23T09:27:39.458Z,61.08
2018-06-23T09:30:43.193Z,59.98
2018-06-23T09:33:46.866Z,59.94
2018-06-23T09:36:50.527Z,61.36
2018-06-23T09:39:55.180Z,62.14
2018-06-23T09:42:58.884Z,60.34
2018-06-23T09:46:02.614Z,61.34
2018-06-23T09:49:06.656Z,61.00
2018-06-23T09:52:10.428Z,61.31
2018-06-23T09:55:14.122Z,62.39
2018-06-23T09:58:17.766Z,61.46
2018-06-23T10:01:21.517Z,61.49
2018-06-23T10:04:25.307Z,61.07
2018-06-23T10:07:28.931Z,62.16
2018-06-23T10:10:32.668Z,63.44
2018-06-23T10:13:36.362Z,64.82
2018-06-23T10:16:40.067Z,64.22
2018-06-23T10:19:43.757Z,65.67
2018-06-23T10:22:47.443Z,65.45
2018-06-23T10:25:51.117Z,66.35
2018-06-23T10:28:54.874Z,66.50
2018-06-23T10:31:58.594Z,65.90
2018-06-23T10:35:02.554Z,62.15
2018-06-23T10:38:06.287Z,62.05
2018-06-23T10:41:09.969Z,63.25
2018-06-23T10:44:13.771Z,62.91
2018-06-23T10:47:17.512Z,62.65
2018-06-23T10:50:21.141Z,62.36
2018-06-23T10:53:24.851Z,63.30
2018-06-23T10:56:28.621Z,63.11
2018-06-23T10:59:32.409Z,62.53
2018-06-23T11:02:36.064Z,63.00
2018-06-23T11:05:39.733Z,63.16
2018-06-23T11:08:43.387Z,61.84
2018-06-23T11:11:47.088Z,62.07
2018-06-23T11:14:50.857Z,63.68
2018-06-23T11:17:54.713Z,63.42
2018-06-23T11:20:58.541Z,62.84
2018-06-23T11:24:02.268Z,61.20
2018-06-23T11:27:06.311Z,61.16
2018-06-23T11:30:09.886Z,62.21
2018-06-23T11:33:13.553Z,59.43
2018-06-23T11:36:17.218Z,59.04
2018-06-23T11:39:20.977Z,58.90
2018-06-23T11:42:24.603Z,59.69
2018-06-23T11:45:28.389Z,59.01
2018-06-23T11:48:32.090Z,58.44
2018-06-23T11:51:35.888Z,58.53
2018-06-23T11:54:39.564Z,58.88
2018-06-23T11:57:43.250Z,58.55
2018-06-23T12:00:46.982Z,58.89
2018-06-23T12:03:50.644Z,59.81
2018-06-23T12:06:54.759Z,56.80
2018-06-23T12:09:58.484Z,55.72
2018-06-23T12:13:02.174Z,55.83
2018-06-23T12:16:05.859Z,54.28
2018-06-23T12:19:09.544Z,54.97
2018-06-23T12:22:13.196Z,54.89
2018-06-23T12:25:16.991Z,55.05
2018-06-23T12:28:20.637Z,54.23
2018-06-23T12:31:24.393Z,53.78
2018-06-23T12:34:28.215Z,54.38
2018-06-23T12:37:31.914Z,54.18
2018-06-23T12:40:35.673Z,54.50
2018-06-23T12:43:39.363Z,55.13
2018-06-23T12:46:43.153Z,54.59
2018-06-23T12:49:46.818Z,55.97
2018-06-23T12:52:50.433Z,57.30
2018-06-23T12:55:54.193Z,54.56
2018-06-23T12:58:57.983Z,52.25
2018-06-23T13:02:01.650Z,54.60
2018-06-23T13:05:06.107Z,54.15
2018-06-23T13:08:09.784Z,52.53
2018-06-23T13:11:13.582Z,53.31
2018-06-23T13:14:17.341Z,53.31
2018-06-23T13:17:21.053Z,55.68
2018-06-23T13:20:24.903Z,53.86
2018-06-23T13:23:28.764Z,55.15
2018-06-23T13:26:32.599Z,56.24
2018-06-23T13:29:36.472Z,55.75
2018-06-23T13:32:40.285Z,55.55
2018-06-23T13:35:43.978Z,55.29
2018-06-23T13:38:47.751Z,56.08
2018-06-23T13:41:51.456Z,57.69
2018-06-23T13:44:55.179Z,56.65
2018-06-23T13:47:58.865Z,53.80
2018-06-23T13:51:02.679Z,54.76
2018-06-23T13:54:06.365Z,55.45
2018-06-23T13:57:10.716Z,54.34
2018-06-23T14:00:14.395Z,54.56
2018-06-23T14:03:18.069Z,54.21
2018-06-23T14:06:21.950Z,54.50
2018-06-23T14:09:25.680Z,51.65
2018-06-23T14:12:29.333Z,52.74
2018-06-23T14:15:33.190Z,53.19
2018-06-23T14:18:36.906Z,53.91
2018-06-23T14:21:40.621Z,53.38
2018-06-23T14:24:44.297Z,53.04
2018-06-23T14:27:48.049Z,53.27
2018-06-23T14:30:51.816Z,52.91
2018-06-23T14:33:55.481Z,52.26
2018-06-23T14:36:59.159Z,51.10
2018-06-23T14:40:03.043Z,51.66
2018-06-23T14:43:06.626Z,52.64
2018-06-23T14:46:10.377Z,54.53
2018-06-23T14:49:14.130Z,53.80
2018-06-23T14:52:17.833Z,54.44
2018-06-23T14:55:21.492Z,53.89
2018-06-23T14:58:25.240Z,54.53
2018-06-23T15:01:28.951Z,54.43
2018-06-23T15:04:32.606Z,55.02
2018-06-23T15:07:36.245Z,53.08
2018-06-23T15:10:51.235Z,53.23
2018-06-23T15:13:54.890Z,53.72
2018-06-23T15:16:58.506Z,53.51
2018-06-23T15:20:02.217Z,55.04
2018-06-23T15:23:05.912Z,54.09
2018-06-23T15:26:09.611Z,56.06
2018-06-23T15:29:13.285Z,55.90
2018-06-23T15:32:16.985Z,57.70
2018-06-23T15:35:20.765Z,56.32
2018-06-23T15:38:24.491Z,56.16
2018-06-23T15:41:28.177Z,57.37
2018-06-23T15:44:31.866Z,55.15
2018-06-23T15:47:35.554Z,56.89
2018-06-23T15:50:39.225Z,56.92
2018-06-23T15:53:42.873Z,56.98
2018-06-23T15:56:46.512Z,58.37
2018-06-23T15:59:50.284Z,58.71
2018-06-23T16:02:54.057Z,59.05
2018-06-23T16:05:57.786Z,59.99
2018-06-23T16:09:01.545Z,59.33
2018-06-23T16:12:05.325Z,60.82
2018-06-23T16:15:08.955Z,60.39
2018-06-23T16:18:12.611Z,61.24
2018-06-23T16:21:16.349Z,61.67
2018-06-23T16:24:20.185Z,63.23
2018-06-23T16:27:23.918Z,62.97
2018-06-23T16:30:27.657Z,63.19
2018-06-23T16:33:31.327Z,64.44
2018-06-23T16:36:35.106Z,64.16
2018-06-23T16:39:38.911Z,63.94
2018-06-23T16:42:42.628Z,64.22
2018-06-23T16:45:46.296Z,65.08
2018-06-23T16:48:50.087Z,64.79
2018-06-23T16:51:53.940Z,64.47
2018-06-23T16:54:57.820Z,65.54
2018-06-23T16:58:01.399Z,65.07
2018-06-23T17:01:05.132Z,66.25
2018-06-23T17:04:08.846Z,67.04
2018-06-23T17:07:12.516Z,68.18
2018-06-23T17:10:16.262Z,69.17
2018-06-23T17:13:20.067Z,70.04
2018-06-23T17:16:23.710Z,70.56
2018-06-23T17:19:27.494Z,71.13
2018-06-23T17:22:31.188Z,71.34
2018-06-23T17:25:35.177Z,71.50
2018-06-23T17:28:38.918Z,70.98
2018-06-23T17:31:42.517Z,70.67
2018-06-23T17:34:46.247Z,70.77
2018-06-23T17:37:49.829Z,70.03
2018-06-23T17:40:53.482Z,69.51
2018-06-23T17:43:57.298Z,68.63
2018-06-23T17:47:00.940Z,69.10
2018-06-23T17:50:05.006Z,69.34
2018-06-23T17:53:08.680Z,69.89
2018-06-23T17:56:12.452Z,70.08
2018-06-23T17:59:16.105Z,70.24
2018-06-23T18:02:19.851Z,69.66
2018-06-23T18:05:23.466Z,69.03
2018-06-23T18:08:28.327Z,69.43
2018-06-23T18:11:32.999Z,69.34
2018-06-23T18:14:36.707Z,69.82
2018-06-23T18:17:40.451Z,70.08
2018-06-23T18:20:44.172Z,69.77
2018-06-23T18:23:50.927Z,69.93
2018-06-23T18:26:54.582Z,69.53
2018-06-23T18:29:58.328Z,70.48
2018-06-23T18:33:01.973Z,70.66
2018-06-23T18:36:05.724Z,70.69
2018-06-23T18:39:10.764Z,70.82
2018-06-23T18:42:14.513Z,70.95
2018-06-23T18:45:18.163Z,71.13
2018-06-23T18:48:21.937Z,71.66
2018-06-23T18:51:25.814Z,71.95
2018-06-23T18:54:29.514Z,71.08
2018-06-23T18:57:33.386Z,71.27
2018-06-23T19:00:37.258Z,72.43
2018-06-23T19:03:41.101Z,72.93
2018-06-23T19:06:45.157Z,72.39
2018-06-23T19:09:49.082Z,72.13
2018-06-23T19:12:52.768Z,72.71
2018-06-23T19:15:56.489Z,72.78
2018-06-23T19:19:00.181Z,71.84
2018-06-23T19:22:03.892Z,71.72
2018-06-23T19:25:09.064Z,70.25
2018-06-23T19:28:12.782Z,69.85
2018-06-23T19:31:16.418Z,70.66
2018-06-23T19:34:20.143Z,69.96
2018-06-23T19:37:23.699Z,69.23
2018-06-23T19:40:27.384Z,69.07
2018-06-23T19:43:31.026Z,69.41
2018-06-23T19:46:34.678Z,69.69
2018-06-23T19:49:39.652Z,69.50
2018-06-23T19:52:43.348Z,69.74
2018-06-23T19:55:47.039Z,70.11
2018-06-23T19:58:50.800Z,70.66
2018-06-23T20:01:54.640Z,70.71
2018-06-23T20:04:58.223Z,71.18
2018-06-23T20:08:01.908Z,70.91
2018-06-23T20:11:05.622Z,70.86
2018-06-23T20:14:09.544Z,71.23
2018-06-23T20:17:13.148Z,71.53
2018-06-23T20:20:16.891Z,71.63
2018-06-23T20:23:20.545Z,72.26
2018-06-23T20:26:24.410Z,72.68
2018-06-23T20:29:28.113Z,72.98
2018-06-23T20:32:31.876Z,73.17
2018-06-23T20:35:35.728Z,73.56
2018-06-23T20:38:39.836Z,73.72
2018-06-23T20:41:43.522Z,73.81
2018-06-23T20:44:47.133Z,74.01
2018-06-23T20:47:50.890Z,74.43
2018-06-23T20:50:54.615Z,74.40
2018-06-23T20:53:58.437Z,74.30
2018-06-23T20:57:02.109Z,74.43
2018-06-23T21:00:05.848Z,74.63
2018-06-23T21:03:09.601Z,74.53
2018-06-23T21:06:13.377Z,74.76
2018-06-23T21:09:17.064Z,74.44
2018-06-23T21:12:20.708Z,74.65
2018-06-23T21:15:24.550Z,74.88
2018-06-23T21:18:28.299Z,74.36
2018-06-23T21:21:32.188Z,74.94
2018-06-23T21:24:36.009Z,75.06
2018-06-23T21:27:39.804Z,75.53
2018-06-23T21:30:43.593Z,76.03
2018-06-23T21:33:47.380Z,76.42
2018-06-23T21:36:51.050Z,75.84
2018-06-23T21:39:54.785Z,76.35
2018-06-23T21:42:58.385Z,76.42
2018-06-23T21:46:02.224Z,76.42
2018-06-23T21:49:06.129Z,76.26
2018-06-23T21:52:09.910Z,76.62
2018-06-23T21:55:13.895Z,76.84
2018-06-23T21:58:17.581Z,77.29
2018-06-23T22:01:21.476Z,77.40
2018-06-23T22:04:25.155Z,77.86
2018-06-23T22:07:28.721Z,78.10
2018-06-23T22:10:32.366Z,78.22
2018-06-23T22:13:36.025Z,78.09
2018-06-23T22:16:41.046Z,78.02
2018-06-23T22:19:44.727Z,78.44
2018-06-23T22:22:54.972Z,78.51
2018-06-23T22:25:58.866Z,78.77
2018-06-23T22:29:02.589Z,79.14
2018-06-23T22:32:06.235Z,79.32
2018-06-23T22:35:10.391Z,79.31
2018-06-23T22:38:14.131Z,79.42
2018-06-23T22:41:18.831Z,79.57
2018-06-23T22:44:28.764Z,79.66
2018-06-23T22:47:32.521Z,79.64
2018-06-23T22:50:36.347Z,79.82
2018-06-23T22:53:40.052Z,79.92
2018-06-23T22:56:43.712Z,79.57
2018-06-23T22:59:47.314Z,79.57
2018-06-23T23:02:51.211Z,79.89
2018-06-23T23:05:54.902Z,79.89
2018-06-23T23:08:58.542Z,80.07
2018-06-23T23:12:02.574Z,79.92
2018-06-23T23:15:06.557Z,80.08
2018-06-23T23:18:10.281Z,79.99
2018-06-23T23:21:13.889Z,79.80
2018-06-23T23:24:17.730Z,79.94
2018-06-23T23:27:21.536Z,79.98
2018-06-23T23:30:25.317Z,80.06
2018-06-23T23:33:28.951Z,80.12
2018-06-23T23:36:32.816Z,79.81
2018-06-23T23:39:36.395Z,79.50
2018-06-23T23:42:40.045Z,79.41
2018-06-23T23:45:43.775Z,79.32
2018-06-23T23:48:47.447Z,79.43
2018-06-23T23:51:51.220Z,79.15
2018-06-23T23:54:54.949Z,78.92
2018-06-23T23:57:58.693Z,79.19
